sensor_id;sensor_type;location;lat;lon;timestamp;P1;durP1;ratioP1;P2;durP2;ratioP2
14611;SDS011;7392;52.078;11.650;2023-02-28T00:01:32;2.10;;;1.70;;
14611;SDS011;7392;52.078;11.650;2023-02-28T00:04:00;1.97;;;1.43;;
14611;SDS011;7392;52.078;11.650;2023-02-28T00:06:28;3.07;;;2.00;;
14611;SDS011;7392;52.078;11.650;2023-02-28T00:08:56;2.53;;;1.90;;
14611;SDS011;7392;52.078;11.650;2023-02-28T00:11:25;3.57;;;2.13;;
14611;SDS011;7392;52.078;11.650;2023-02-28T00:13:53;3.73;;;2.40;;
14611;SDS011;7392;52.078;11.650;2023-02-28T00:16:22;2.87;;;2.07;;
14611;SDS011;7392;52.078;11.650;2023-02-28T00:18:50;2.53;;;1.97;;
14611;SDS011;7392;52.078;11.650;2023-02-28T00:21:18;2.17;;;1.90;;
14611;SDS011;7392;52.078;11.650;2023-02-28T00:23:47;2.37;;;2.10;;
14611;SDS011;7392;52.078;11.650;2023-02-28T00:26:15;2.37;;;1.90;;
14611;SDS011;7392;52.078;11.650;2023-02-28T00:28:46;2.37;;;1.80;;
14611;SDS011;7392;52.078;11.650;2023-02-28T00:31:14;2.10;;;1.80;;
14611;SDS011;7392;52.078;11.650;2023-02-28T00:33:42;2.83;;;2.00;;
14611;SDS011;7392;52.078;11.650;2023-02-28T00:36:11;3.17;;;2.03;;
14611;SDS011;7392;52.078;11.650;2023-02-28T00:38:39;2.30;;;1.80;;
14611;SDS011;7392;52.078;11.650;2023-02-28T00:41:07;2.40;;;1.80;;
14611;SDS011;7392;52.078;11.650;2023-02-28T00:43:36;2.10;;;1.63;;
14611;SDS011;7392;52.078;11.650;2023-02-28T00:46:07;3.13;;;2.10;;
14611;SDS011;7392;52.078;11.650;2023-02-28T00:48:35;2.47;;;1.60;;
14611;SDS011;7392;52.078;11.650;2023-02-28T00:51:03;2.00;;;1.50;;
14611;SDS011;7392;52.078;11.650;2023-02-28T00:53:31;2.07;;;1.50;;
14611;SDS011;7392;52.078;11.650;2023-02-28T00:55:59;2.20;;;1.73;;
14611;SDS011;7392;52.078;11.650;2023-02-28T00:58:27;3.23;;;1.93;;
14611;SDS011;7392;52.078;11.650;2023-02-28T01:00:56;2.20;;;1.50;;
14611;SDS011;7392;52.078;11.650;2023-02-28T01:03:25;1.70;;;1.40;;
14611;SDS011;7392;52.078;11.650;2023-02-28T01:05:53;2.33;;;1.43;;
14611;SDS011;7392;52.078;11.650;2023-02-28T01:08:21;2.17;;;1.60;;
14611;SDS011;7392;52.078;11.650;2023-02-28T01:10:49;1.67;;;1.50;;
14611;SDS011;7392;52.078;11.650;2023-02-28T01:13:17;2.53;;;1.70;;
14611;SDS011;7392;52.078;11.650;2023-02-28T01:15:46;1.97;;;1.40;;
14611;SDS011;7392;52.078;11.650;2023-02-28T01:18:19;1.77;;;1.50;;
14611;SDS011;7392;52.078;11.650;2023-02-28T01:20:48;1.60;;;1.40;;
14611;SDS011;7392;52.078;11.650;2023-02-28T01:23:18;1.77;;;1.60;;
14611;SDS011;7392;52.078;11.650;2023-02-28T01:25:46;1.10;;;1.00;;
14611;SDS011;7392;52.078;11.650;2023-02-28T01:28:13;1.97;;;1.53;;
14611;SDS011;7392;52.078;11.650;2023-02-28T01:30:41;1.97;;;1.47;;
14611;SDS011;7392;52.078;11.650;2023-02-28T01:33:09;1.30;;;1.20;;
14611;SDS011;7392;52.078;11.650;2023-02-28T01:35:37;1.43;;;1.20;;
14611;SDS011;7392;52.078;11.650;2023-02-28T01:38:06;1.57;;;1.20;;
14611;SDS011;7392;52.078;11.650;2023-02-28T01:40:47;1.10;;;1.00;;
14611;SDS011;7392;52.078;11.650;2023-02-28T01:43:18;1.57;;;1.10;;
14611;SDS011;7392;52.078;11.650;2023-02-28T01:45:48;1.20;;;1.07;;
14611;SDS011;7392;52.078;11.650;2023-02-28T01:48:16;1.33;;;1.10;;
14611;SDS011;7392;52.078;11.650;2023-02-28T01:50:45;1.30;;;1.20;;
14611;SDS011;7392;52.078;11.650;2023-02-28T01:53:17;0.97;;;0.83;;
14611;SDS011;7392;52.078;11.650;2023-02-28T01:55:49;1.20;;;1.10;;
14611;SDS011;7392;52.078;11.650;2023-02-28T01:58:20;1.60;;;1.10;;
14611;SDS011;7392;52.078;11.650;2023-02-28T02:00:48;1.33;;;1.10;;
14611;SDS011;7392;52.078;11.650;2023-02-28T02:03:17;1.07;;;0.97;;
14611;SDS011;7392;52.078;11.650;2023-02-28T02:05:47;1.20;;;0.97;;
14611;SDS011;7392;52.078;11.650;2023-02-28T02:08:16;1.53;;;1.23;;
14611;SDS011;7392;52.078;11.650;2023-02-28T02:10:47;1.20;;;1.10;;
14611;SDS011;7392;52.078;11.650;2023-02-28T02:13:29;1.40;;;1.00;;
14611;SDS011;7392;52.078;11.650;2023-02-28T02:16:10;1.23;;;1.00;;
14611;SDS011;7392;52.078;11.650;2023-02-28T02:18:48;1.10;;;1.00;;
14611;SDS011;7392;52.078;11.650;2023-02-28T02:24:57;1.47;;;1.20;;
14611;SDS011;7392;52.078;11.650;2023-02-28T02:27:48;1.43;;;1.20;;
14611;SDS011;7392;52.078;11.650;2023-02-28T02:30:49;1.93;;;1.20;;
14611;SDS011;7392;52.078;11.650;2023-02-28T02:34:01;1.40;;;1.27;;
14611;SDS011;7392;52.078;11.650;2023-02-28T02:36:51;1.90;;;1.53;;
14611;SDS011;7392;52.078;11.650;2023-02-28T02:39:27;1.30;;;1.20;;
14611;SDS011;7392;52.078;11.650;2023-02-28T02:42:01;1.43;;;1.30;;
14611;SDS011;7392;52.078;11.650;2023-02-28T02:44:39;1.50;;;1.10;;
14611;SDS011;7392;52.078;11.650;2023-02-28T02:47:11;1.77;;;1.27;;
14611;SDS011;7392;52.078;11.650;2023-02-28T02:49:45;1.10;;;1.00;;
14611;SDS011;7392;52.078;11.650;2023-02-28T02:52:17;1.63;;;1.40;;
14611;SDS011;7392;52.078;11.650;2023-02-28T02:54:48;1.53;;;1.30;;
14611;SDS011;7392;52.078;11.650;2023-02-28T02:57:22;1.43;;;1.13;;
14611;SDS011;7392;52.078;11.650;2023-02-28T02:59:54;1.50;;;1.10;;
14611;SDS011;7392;52.078;11.650;2023-02-28T03:02:23;1.53;;;1.20;;
14611;SDS011;7392;52.078;11.650;2023-02-28T03:04:58;1.43;;;1.30;;
14611;SDS011;7392;52.078;11.650;2023-02-28T03:07:28;1.23;;;1.13;;
14611;SDS011;7392;52.078;11.650;2023-02-28T03:09:56;1.20;;;1.10;;
14611;SDS011;7392;52.078;11.650;2023-02-28T03:12:27;1.23;;;1.13;;
14611;SDS011;7392;52.078;11.650;2023-02-28T03:15:03;1.20;;;1.10;;
14611;SDS011;7392;52.078;11.650;2023-02-28T03:17:44;2.33;;;1.60;;
14611;SDS011;7392;52.078;11.650;2023-02-28T03:20:27;1.80;;;1.60;;
14611;SDS011;7392;52.078;11.650;2023-02-28T03:25:53;2.40;;;1.60;;
14611;SDS011;7392;52.078;11.650;2023-02-28T03:28:27;1.87;;;1.40;;
14611;SDS011;7392;52.078;11.650;2023-02-28T03:31:03;1.60;;;1.50;;
14611;SDS011;7392;52.078;11.650;2023-02-28T03:33:38;1.73;;;1.50;;
14611;SDS011;7392;52.078;11.650;2023-02-28T03:36:12;1.40;;;1.30;;
14611;SDS011;7392;52.078;11.650;2023-02-28T03:38:44;1.43;;;1.10;;
14611;SDS011;7392;52.078;11.650;2023-02-28T03:41:15;1.30;;;1.20;;
14611;SDS011;7392;52.078;11.650;2023-02-28T03:43:47;1.27;;;1.17;;
14611;SDS011;7392;52.078;11.650;2023-02-28T03:46:19;1.00;;;0.77;;
14611;SDS011;7392;52.078;11.650;2023-02-28T03:48:51;1.10;;;1.00;;
14611;SDS011;7392;52.078;11.650;2023-02-28T03:51:26;1.30;;;1.10;;
14611;SDS011;7392;52.078;11.650;2023-02-28T03:53:57;1.40;;;1.10;;
14611;SDS011;7392;52.078;11.650;2023-02-28T03:56:31;1.30;;;1.07;;
14611;SDS011;7392;52.078;11.650;2023-02-28T03:59:05;1.10;;;1.00;;
14611;SDS011;7392;52.078;11.650;2023-02-28T04:01:38;0.87;;;0.83;;
14611;SDS011;7392;52.078;11.650;2023-02-28T04:04:08;1.10;;;1.00;;
14611;SDS011;7392;52.078;11.650;2023-02-28T04:06:38;1.20;;;1.10;;
14611;SDS011;7392;52.078;11.650;2023-02-28T04:09:08;1.20;;;1.00;;
14611;SDS011;7392;52.078;11.650;2023-02-28T04:11:37;1.30;;;1.07;;
14611;SDS011;7392;52.078;11.650;2023-02-28T04:14:06;1.00;;;0.90;;
14611;SDS011;7392;52.078;11.650;2023-02-28T04:16:36;1.10;;;1.00;;
14611;SDS011;7392;52.078;11.650;2023-02-28T04:19:06;1.47;;;1.10;;
14611;SDS011;7392;52.078;11.650;2023-02-28T04:21:35;1.07;;;0.90;;
14611;SDS011;7392;52.078;11.650;2023-02-28T04:24:06;0.80;;;0.80;;
14611;SDS011;7392;52.078;11.650;2023-02-28T04:26:40;0.83;;;0.80;;
14611;SDS011;7392;52.078;11.650;2023-02-28T04:29:10;1.67;;;0.90;;
14611;SDS011;7392;52.078;11.650;2023-02-28T04:31:39;0.90;;;0.90;;
14611;SDS011;7392;52.078;11.650;2023-02-28T04:34:07;1.17;;;1.07;;
14611;SDS011;7392;52.078;11.650;2023-02-28T04:36:35;1.50;;;1.10;;
14611;SDS011;7392;52.078;11.650;2023-02-28T04:39:03;0.93;;;0.80;;
14611;SDS011;7392;52.078;11.650;2023-02-28T04:41:32;1.20;;;1.07;;
14611;SDS011;7392;52.078;11.650;2023-02-28T04:44:00;1.20;;;1.07;;
14611;SDS011;7392;52.078;11.650;2023-02-28T04:46:28;1.20;;;0.97;;
14611;SDS011;7392;52.078;11.650;2023-02-28T04:48:56;1.83;;;1.40;;
14611;SDS011;7392;52.078;11.650;2023-02-28T04:51:24;1.30;;;1.20;;
14611;SDS011;7392;52.078;11.650;2023-02-28T04:53:52;1.20;;;1.10;;
14611;SDS011;7392;52.078;11.650;2023-02-28T04:56:20;1.33;;;1.00;;
14611;SDS011;7392;52.078;11.650;2023-02-28T04:58:50;1.33;;;1.10;;
14611;SDS011;7392;52.078;11.650;2023-02-28T05:01:20;1.43;;;1.07;;
14611;SDS011;7392;52.078;11.650;2023-02-28T05:03:50;1.33;;;1.13;;
14611;SDS011;7392;52.078;11.650;2023-02-28T05:06:20;1.00;;;0.87;;
14611;SDS011;7392;52.078;11.650;2023-02-28T05:08:50;1.10;;;1.00;;
14611;SDS011;7392;52.078;11.650;2023-02-28T05:11:19;1.30;;;1.00;;
14611;SDS011;7392;52.078;11.650;2023-02-28T05:13:50;1.57;;;1.00;;
14611;SDS011;7392;52.078;11.650;2023-02-28T05:16:18;1.20;;;1.07;;
14611;SDS011;7392;52.078;11.650;2023-02-28T05:18:47;1.27;;;1.13;;
14611;SDS011;7392;52.078;11.650;2023-02-28T05:21:22;1.50;;;1.20;;
14611;SDS011;7392;52.078;11.650;2023-02-28T05:23:52;1.63;;;1.20;;
14611;SDS011;7392;52.078;11.650;2023-02-28T05:26:21;1.13;;;1.03;;
14611;SDS011;7392;52.078;11.650;2023-02-28T05:28:51;1.50;;;1.10;;
14611;SDS011;7392;52.078;11.650;2023-02-28T05:31:18;1.70;;;1.23;;
14611;SDS011;7392;52.078;11.650;2023-02-28T05:33:46;2.00;;;1.17;;
14611;SDS011;7392;52.078;11.650;2023-02-28T05:36:14;1.27;;;1.10;;
14611;SDS011;7392;52.078;11.650;2023-02-28T05:38:42;1.40;;;1.20;;
14611;SDS011;7392;52.078;11.650;2023-02-28T05:41:10;1.30;;;1.10;;
14611;SDS011;7392;52.078;11.650;2023-02-28T05:43:38;1.60;;;1.30;;
14611;SDS011;7392;52.078;11.650;2023-02-28T05:46:08;1.40;;;1.30;;
14611;SDS011;7392;52.078;11.650;2023-02-28T05:48:37;1.10;;;1.00;;
14611;SDS011;7392;52.078;11.650;2023-02-28T05:51:06;1.17;;;1.00;;
14611;SDS011;7392;52.078;11.650;2023-02-28T05:53:35;1.63;;;1.30;;
14611;SDS011;7392;52.078;11.650;2023-02-28T05:56:03;1.50;;;1.40;;
14611;SDS011;7392;52.078;11.650;2023-02-28T05:58:31;1.40;;;1.17;;
14611;SDS011;7392;52.078;11.650;2023-02-28T06:01:01;1.40;;;1.20;;
14611;SDS011;7392;52.078;11.650;2023-02-28T06:03:48;1.53;;;1.40;;
14611;SDS011;7392;52.078;11.650;2023-02-28T06:06:16;1.33;;;1.07;;
14611;SDS011;7392;52.078;11.650;2023-02-28T06:08:44;1.63;;;1.37;;
14611;SDS011;7392;52.078;11.650;2023-02-28T06:11:12;1.70;;;1.50;;
14611;SDS011;7392;52.078;11.650;2023-02-28T06:13:40;2.07;;;1.50;;
14611;SDS011;7392;52.078;11.650;2023-02-28T06:16:08;1.40;;;1.20;;
14611;SDS011;7392;52.078;11.650;2023-02-28T06:18:39;1.90;;;1.60;;
14611;SDS011;7392;52.078;11.650;2023-02-28T06:21:07;1.93;;;1.37;;
14611;SDS011;7392;52.078;11.650;2023-02-28T06:23:35;1.77;;;1.57;;
14611;SDS011;7392;52.078;11.650;2023-02-28T06:26:03;1.77;;;1.47;;
14611;SDS011;7392;52.078;11.650;2023-02-28T06:28:31;1.87;;;1.50;;
14611;SDS011;7392;52.078;11.650;2023-02-28T06:30:58;1.60;;;1.47;;
14611;SDS011;7392;52.078;11.650;2023-02-28T06:33:27;1.50;;;1.40;;
14611;SDS011;7392;52.078;11.650;2023-02-28T06:35:56;2.13;;;1.77;;
14611;SDS011;7392;52.078;11.650;2023-02-28T06:38:23;1.80;;;1.50;;
14611;SDS011;7392;52.078;11.650;2023-02-28T06:40:55;2.00;;;1.80;;
14611;SDS011;7392;52.078;11.650;2023-02-28T06:43:24;2.57;;;1.70;;
14611;SDS011;7392;52.078;11.650;2023-02-28T06:45:54;2.07;;;1.87;;
14611;SDS011;7392;52.078;11.650;2023-02-28T06:48:22;2.00;;;1.67;;
14611;SDS011;7392;52.078;11.650;2023-02-28T06:50:50;2.10;;;1.90;;
14611;SDS011;7392;52.078;11.650;2023-02-28T06:53:19;2.00;;;1.57;;
14611;SDS011;7392;52.078;11.650;2023-02-28T06:55:46;2.13;;;1.80;;
14611;SDS011;7392;52.078;11.650;2023-02-28T06:58:15;1.90;;;1.70;;
14611;SDS011;7392;52.078;11.650;2023-02-28T07:00:45;1.80;;;1.57;;
14611;SDS011;7392;52.078;11.650;2023-02-28T07:03:13;1.70;;;1.47;;
14611;SDS011;7392;52.078;11.650;2023-02-28T07:05:41;2.30;;;1.60;;
14611;SDS011;7392;52.078;11.650;2023-02-28T07:08:09;2.17;;;1.50;;
14611;SDS011;7392;52.078;11.650;2023-02-28T07:10:38;2.17;;;1.70;;
14611;SDS011;7392;52.078;11.650;2023-02-28T07:13:06;1.73;;;1.57;;
14611;SDS011;7392;52.078;11.650;2023-02-28T07:15:36;2.23;;;1.67;;
14611;SDS011;7392;52.078;11.650;2023-02-28T07:18:08;1.97;;;1.67;;
14611;SDS011;7392;52.078;11.650;2023-02-28T07:20:35;2.30;;;1.80;;
14611;SDS011;7392;52.078;11.650;2023-02-28T07:23:03;2.63;;;1.90;;
14611;SDS011;7392;52.078;11.650;2023-02-28T07:25:31;2.33;;;1.60;;
14611;SDS011;7392;52.078;11.650;2023-02-28T07:28:00;2.07;;;1.80;;
14611;SDS011;7392;52.078;11.650;2023-02-28T07:30:27;1.93;;;1.60;;
14611;SDS011;7392;52.078;11.650;2023-02-28T07:32:55;2.50;;;1.87;;
14611;SDS011;7392;52.078;11.650;2023-02-28T07:35:23;2.53;;;1.60;;
14611;SDS011;7392;52.078;11.650;2023-02-28T07:37:51;2.00;;;1.53;;
14611;SDS011;7392;52.078;11.650;2023-02-28T07:40:18;2.03;;;1.60;;
14611;SDS011;7392;52.078;11.650;2023-02-28T07:42:46;2.13;;;1.70;;
14611;SDS011;7392;52.078;11.650;2023-02-28T07:45:17;2.30;;;1.80;;
14611;SDS011;7392;52.078;11.650;2023-02-28T07:47:45;2.13;;;1.80;;
14611;SDS011;7392;52.078;11.650;2023-02-28T07:50:14;1.87;;;1.50;;
14611;SDS011;7392;52.078;11.650;2023-02-28T07:52:42;2.10;;;1.63;;
14611;SDS011;7392;52.078;11.650;2023-02-28T07:55:10;2.50;;;1.90;;
14611;SDS011;7392;52.078;11.650;2023-02-28T07:57:40;2.10;;;1.70;;
14611;SDS011;7392;52.078;11.650;2023-02-28T08:00:08;2.20;;;1.80;;
14611;SDS011;7392;52.078;11.650;2023-02-28T08:02:40;2.10;;;1.80;;
14611;SDS011;7392;52.078;11.650;2023-02-28T08:05:09;1.97;;;1.50;;
14611;SDS011;7392;52.078;11.650;2023-02-28T08:07:37;1.97;;;1.50;;
14611;SDS011;7392;52.078;11.650;2023-02-28T08:10:05;1.50;;;1.33;;
14611;SDS011;7392;52.078;11.650;2023-02-28T08:12:36;1.97;;;1.50;;
14611;SDS011;7392;52.078;11.650;2023-02-28T08:15:04;2.87;;;1.77;;
14611;SDS011;7392;52.078;11.650;2023-02-28T08:17:37;2.50;;;1.67;;
14611;SDS011;7392;52.078;11.650;2023-02-28T08:20:07;3.83;;;2.00;;
14611;SDS011;7392;52.078;11.650;2023-02-28T08:22:36;3.57;;;2.10;;
14611;SDS011;7392;52.078;11.650;2023-02-28T08:25:04;3.23;;;2.70;;
14611;SDS011;7392;52.078;11.650;2023-02-28T08:27:33;3.23;;;2.37;;
14611;SDS011;7392;52.078;11.650;2023-02-28T08:30:01;2.83;;;2.30;;
14611;SDS011;7392;52.078;11.650;2023-02-28T08:32:30;2.50;;;2.10;;
14611;SDS011;7392;52.078;11.650;2023-02-28T08:34:59;3.40;;;2.60;;
14611;SDS011;7392;52.078;11.650;2023-02-28T08:37:29;2.47;;;1.90;;
14611;SDS011;7392;52.078;11.650;2023-02-28T08:39:56;2.33;;;1.93;;
14611;SDS011;7392;52.078;11.650;2023-02-28T08:42:24;2.93;;;1.80;;
14611;SDS011;7392;52.078;11.650;2023-02-28T08:44:52;2.60;;;2.00;;
14611;SDS011;7392;52.078;11.650;2023-02-28T08:47:20;3.03;;;2.10;;
14611;SDS011;7392;52.078;11.650;2023-02-28T08:49:49;3.50;;;2.60;;
14611;SDS011;7392;52.078;11.650;2023-02-28T08:52:19;3.80;;;2.53;;
14611;SDS011;7392;52.078;11.650;2023-02-28T08:54:48;3.13;;;2.30;;
14611;SDS011;7392;52.078;11.650;2023-02-28T08:57:16;2.60;;;2.23;;
14611;SDS011;7392;52.078;11.650;2023-02-28T08:59:43;2.97;;;2.20;;
14611;SDS011;7392;52.078;11.650;2023-02-28T09:02:12;2.53;;;2.03;;
14611;SDS011;7392;52.078;11.650;2023-02-28T09:04:40;2.10;;;1.90;;
14611;SDS011;7392;52.078;11.650;2023-02-28T09:07:08;2.70;;;1.93;;
14611;SDS011;7392;52.078;11.650;2023-02-28T09:09:36;2.40;;;2.00;;
14611;SDS011;7392;52.078;11.650;2023-02-28T09:12:05;2.57;;;1.93;;
14611;SDS011;7392;52.078;11.650;2023-02-28T09:14:33;2.83;;;2.43;;
14611;SDS011;7392;52.078;11.650;2023-02-28T09:17:01;3.30;;;2.33;;
14611;SDS011;7392;52.078;11.650;2023-02-28T09:19:33;2.83;;;2.27;;
14611;SDS011;7392;52.078;11.650;2023-02-28T09:22:01;4.20;;;3.07;;
14611;SDS011;7392;52.078;11.650;2023-02-28T09:24:28;3.77;;;2.20;;
14611;SDS011;7392;52.078;11.650;2023-02-28T09:26:58;6.03;;;2.63;;
14611;SDS011;7392;52.078;11.650;2023-02-28T09:29:31;4.63;;;2.30;;
14611;SDS011;7392;52.078;11.650;2023-02-28T09:34:40;3.67;;;2.83;;
14611;SDS011;7392;52.078;11.650;2023-02-28T09:37:08;4.80;;;2.27;;
14611;SDS011;7392;52.078;11.650;2023-02-28T09:39:36;4.97;;;2.37;;
14611;SDS011;7392;52.078;11.650;2023-02-28T09:42:03;3.33;;;2.40;;
14611;SDS011;7392;52.078;11.650;2023-02-28T09:44:35;5.13;;;2.03;;
14611;SDS011;7392;52.078;11.650;2023-02-28T09:47:06;2.50;;;1.83;;
14611;SDS011;7392;52.078;11.650;2023-02-28T09:49:38;2.63;;;1.73;;
14611;SDS011;7392;52.078;11.650;2023-02-28T09:52:14;2.40;;;1.60;;
14611;SDS011;7392;52.078;11.650;2023-02-28T09:54:45;3.60;;;1.80;;
14611;SDS011;7392;52.078;11.650;2023-02-28T09:57:15;2.73;;;1.90;;
14611;SDS011;7392;52.078;11.650;2023-02-28T09:59:51;2.60;;;1.97;;
14611;SDS011;7392;52.078;11.650;2023-02-28T10:02:41;2.70;;;1.90;;
14611;SDS011;7392;52.078;11.650;2023-02-28T10:05:18;3.47;;;1.90;;
14611;SDS011;7392;52.078;11.650;2023-02-28T10:07:56;2.90;;;1.70;;
14611;SDS011;7392;52.078;11.650;2023-02-28T10:10:33;2.27;;;1.57;;
14611;SDS011;7392;52.078;11.650;2023-02-28T10:13:07;2.07;;;1.63;;
14611;SDS011;7392;52.078;11.650;2023-02-28T10:15:43;2.50;;;2.00;;
14611;SDS011;7392;52.078;11.650;2023-02-28T10:18:14;1.97;;;1.70;;
14611;SDS011;7392;52.078;11.650;2023-02-28T10:20:47;2.20;;;1.57;;
14611;SDS011;7392;52.078;11.650;2023-02-28T10:23:20;2.20;;;1.67;;
14611;SDS011;7392;52.078;11.650;2023-02-28T10:25:53;1.87;;;1.50;;
14611;SDS011;7392;52.078;11.650;2023-02-28T10:28:24;2.20;;;1.60;;
14611;SDS011;7392;52.078;11.650;2023-02-28T10:30:54;1.97;;;1.40;;
14611;SDS011;7392;52.078;11.650;2023-02-28T10:33:23;1.53;;;1.43;;
14611;SDS011;7392;52.078;11.650;2023-02-28T10:35:54;2.17;;;1.70;;
14611;SDS011;7392;52.078;11.650;2023-02-28T10:38:23;2.47;;;1.60;;
14611;SDS011;7392;52.078;11.650;2023-02-28T10:40:57;1.90;;;1.60;;
14611;SDS011;7392;52.078;11.650;2023-02-28T10:43:31;2.50;;;1.60;;
14611;SDS011;7392;52.078;11.650;2023-02-28T10:45:59;3.07;;;2.00;;
14611;SDS011;7392;52.078;11.650;2023-02-28T10:48:32;2.17;;;1.70;;
14611;SDS011;7392;52.078;11.650;2023-02-28T10:51:03;2.70;;;2.10;;
14611;SDS011;7392;52.078;11.650;2023-02-28T10:53:33;2.80;;;1.93;;
14611;SDS011;7392;52.078;11.650;2023-02-28T10:56:24;2.30;;;1.73;;
14611;SDS011;7392;52.078;11.650;2023-02-28T10:58:53;2.43;;;1.80;;
14611;SDS011;7392;52.078;11.650;2023-02-28T11:01:24;1.60;;;1.50;;
14611;SDS011;7392;52.078;11.650;2023-02-28T11:03:52;3.23;;;2.10;;
14611;SDS011;7392;52.078;11.650;2023-02-28T11:06:22;2.70;;;2.00;;
14611;SDS011;7392;52.078;11.650;2023-02-28T11:08:52;3.10;;;2.10;;
14611;SDS011;7392;52.078;11.650;2023-02-28T11:11:23;3.03;;;1.70;;
14611;SDS011;7392;52.078;11.650;2023-02-28T11:13:54;2.37;;;1.90;;
14611;SDS011;7392;52.078;11.650;2023-02-28T11:16:31;2.57;;;1.77;;
14611;SDS011;7392;52.078;11.650;2023-02-28T11:19:00;2.07;;;1.83;;
14611;SDS011;7392;52.078;11.650;2023-02-28T11:21:31;2.03;;;1.47;;
14611;SDS011;7392;52.078;11.650;2023-02-28T11:24:04;1.63;;;1.43;;
14611;SDS011;7392;52.078;11.650;2023-02-28T11:26:43;2.33;;;1.80;;
14611;SDS011;7392;52.078;11.650;2023-02-28T11:29:16;2.80;;;1.87;;
14611;SDS011;7392;52.078;11.650;2023-02-28T11:34:41;2.37;;;2.00;;
14611;SDS011;7392;52.078;11.650;2023-02-28T11:37:12;2.73;;;2.00;;
14611;SDS011;7392;52.078;11.650;2023-02-28T11:39:42;2.60;;;1.73;;
14611;SDS011;7392;52.078;11.650;2023-02-28T11:42:13;1.77;;;1.50;;
14611;SDS011;7392;52.078;11.650;2023-02-28T11:44:53;1.83;;;1.40;;
14611;SDS011;7392;52.078;11.650;2023-02-28T11:47:32;2.80;;;1.80;;
14611;SDS011;7392;52.078;11.650;2023-02-28T11:50:11;2.03;;;1.70;;
14611;SDS011;7392;52.078;11.650;2023-02-28T11:52:50;2.77;;;2.17;;
14611;SDS011;7392;52.078;11.650;2023-02-28T11:55:23;3.77;;;1.63;;
14611;SDS011;7392;52.078;11.650;2023-02-28T11:57:58;2.57;;;1.77;;
14611;SDS011;7392;52.078;11.650;2023-02-28T12:00:40;2.43;;;1.63;;
14611;SDS011;7392;52.078;11.650;2023-02-28T12:03:21;2.43;;;1.97;;
14611;SDS011;7392;52.078;11.650;2023-02-28T12:05:57;1.93;;;1.70;;
14611;SDS011;7392;52.078;11.650;2023-02-28T12:08:47;2.27;;;1.60;;
14611;SDS011;7392;52.078;11.650;2023-02-28T12:11:24;2.50;;;1.70;;
14611;SDS011;7392;52.078;11.650;2023-02-28T12:14:05;1.97;;;1.50;;
14611;SDS011;7392;52.078;11.650;2023-02-28T12:16:47;1.90;;;1.60;;
14611;SDS011;7392;52.078;11.650;2023-02-28T12:19:24;2.40;;;1.63;;
14611;SDS011;7392;52.078;11.650;2023-02-28T12:22:05;2.30;;;1.50;;
14611;SDS011;7392;52.078;11.650;2023-02-28T12:27:49;1.80;;;1.60;;
14611;SDS011;7392;52.078;11.650;2023-02-28T12:30:20;2.00;;;1.73;;
14611;SDS011;7392;52.078;11.650;2023-02-28T12:32:52;2.53;;;1.73;;
14611;SDS011;7392;52.078;11.650;2023-02-28T12:35:25;2.17;;;1.60;;
14611;SDS011;7392;52.078;11.650;2023-02-28T12:38:02;2.80;;;1.83;;
14611;SDS011;7392;52.078;11.650;2023-02-28T12:40:41;2.27;;;1.57;;
14611;SDS011;7392;52.078;11.650;2023-02-28T12:43:12;2.60;;;1.90;;
14611;SDS011;7392;52.078;11.650;2023-02-28T12:45:45;2.70;;;1.97;;
14611;SDS011;7392;52.078;11.650;2023-02-28T12:48:17;1.93;;;1.60;;
14611;SDS011;7392;52.078;11.650;2023-02-28T12:50:49;3.93;;;1.80;;
14611;SDS011;7392;52.078;11.650;2023-02-28T12:53:18;2.13;;;1.70;;
14611;SDS011;7392;52.078;11.650;2023-02-28T12:55:56;3.10;;;1.80;;
14611;SDS011;7392;52.078;11.650;2023-02-28T12:58:36;2.20;;;1.73;;
14611;SDS011;7392;52.078;11.650;2023-02-28T13:01:13;2.50;;;1.70;;
14611;SDS011;7392;52.078;11.650;2023-02-28T13:07:10;2.93;;;1.97;;
14611;SDS011;7392;52.078;11.650;2023-02-28T13:09:52;3.77;;;1.97;;
14611;SDS011;7392;52.078;11.650;2023-02-28T13:12:22;3.60;;;1.57;;
14611;SDS011;7392;52.078;11.650;2023-02-28T13:14:50;1.87;;;1.60;;
14611;SDS011;7392;52.078;11.650;2023-02-28T13:17:27;2.50;;;1.47;;
14611;SDS011;7392;52.078;11.650;2023-02-28T13:19:56;1.80;;;1.50;;
14611;SDS011;7392;52.078;11.650;2023-02-28T13:22:39;2.10;;;1.60;;
14611;SDS011;7392;52.078;11.650;2023-02-28T13:28:55;2.97;;;1.97;;
14611;SDS011;7392;52.078;11.650;2023-02-28T13:34:40;2.20;;;1.80;;
14611;SDS011;7392;52.078;11.650;2023-02-28T13:37:33;2.47;;;1.70;;
14611;SDS011;7392;52.078;11.650;2023-02-28T13:40:26;2.37;;;1.70;;
14611;SDS011;7392;52.078;11.650;2023-02-28T13:42:56;2.60;;;1.60;;
14611;SDS011;7392;52.078;11.650;2023-02-28T13:45:25;2.10;;;1.60;;
14611;SDS011;7392;52.078;11.650;2023-02-28T13:47:55;1.57;;;1.47;;
14611;SDS011;7392;52.078;11.650;2023-02-28T13:50:34;3.67;;;1.80;;
14611;SDS011;7392;52.078;11.650;2023-02-28T13:53:16;1.90;;;1.63;;
14611;SDS011;7392;52.078;11.650;2023-02-28T13:56:03;2.17;;;1.60;;
14611;SDS011;7392;52.078;11.650;2023-02-28T13:58:38;2.07;;;1.50;;
14611;SDS011;7392;52.078;11.650;2023-02-28T14:01:15;3.77;;;2.10;;
14611;SDS011;7392;52.078;11.650;2023-02-28T14:07:00;3.73;;;2.50;;
14611;SDS011;7392;52.078;11.650;2023-02-28T14:09:30;2.40;;;1.97;;
14611;SDS011;7392;52.078;11.650;2023-02-28T14:15:02;4.90;;;2.57;;
14611;SDS011;7392;52.078;11.650;2023-02-28T14:17:31;3.73;;;2.70;;
14611;SDS011;7392;52.078;11.650;2023-02-28T14:19:59;2.97;;;2.37;;
14611;SDS011;7392;52.078;11.650;2023-02-28T14:22:38;4.10;;;2.93;;
14611;SDS011;7392;52.078;11.650;2023-02-28T14:25:22;3.03;;;2.17;;
14611;SDS011;7392;52.078;11.650;2023-02-28T14:28:03;2.73;;;2.00;;
14611;SDS011;7392;52.078;11.650;2023-02-28T14:30:51;5.07;;;3.80;;
14611;SDS011;7392;52.078;11.650;2023-02-28T14:33:26;3.20;;;2.50;;
14611;SDS011;7392;52.078;11.650;2023-02-28T14:36:09;2.87;;;2.23;;
14611;SDS011;7392;52.078;11.650;2023-02-28T14:38:44;2.47;;;2.00;;
14611;SDS011;7392;52.078;11.650;2023-02-28T14:41:16;2.67;;;2.07;;
14611;SDS011;7392;52.078;11.650;2023-02-28T14:43:51;2.03;;;1.57;;
14611;SDS011;7392;52.078;11.650;2023-02-28T14:46:22;2.20;;;1.70;;
14611;SDS011;7392;52.078;11.650;2023-02-28T14:48:54;1.97;;;1.57;;
14611;SDS011;7392;52.078;11.650;2023-02-28T14:51:22;1.90;;;1.70;;
14611;SDS011;7392;52.078;11.650;2023-02-28T14:53:52;1.97;;;1.43;;
14611;SDS011;7392;52.078;11.650;2023-02-28T14:56:26;1.73;;;1.50;;
14611;SDS011;7392;52.078;11.650;2023-02-28T14:58:57;2.10;;;1.57;;
14611;SDS011;7392;52.078;11.650;2023-02-28T15:01:25;1.80;;;1.50;;
14611;SDS011;7392;52.078;11.650;2023-02-28T15:03:56;1.60;;;1.43;;
14611;SDS011;7392;52.078;11.650;2023-02-28T15:06:25;1.90;;;1.60;;
14611;SDS011;7392;52.078;11.650;2023-02-28T15:09:13;2.93;;;1.67;;
14611;SDS011;7392;52.078;11.650;2023-02-28T15:11:45;2.07;;;1.57;;
14611;SDS011;7392;52.078;11.650;2023-02-28T15:14:17;2.07;;;1.50;;
14611;SDS011;7392;52.078;11.650;2023-02-28T15:16:48;2.23;;;1.70;;
14611;SDS011;7392;52.078;11.650;2023-02-28T15:19:22;1.90;;;1.50;;
14611;SDS011;7392;52.078;11.650;2023-02-28T15:21:53;1.77;;;1.60;;
14611;SDS011;7392;52.078;11.650;2023-02-28T15:24:30;2.50;;;1.57;;
14611;SDS011;7392;52.078;11.650;2023-02-28T15:27:03;1.93;;;1.47;;
14611;SDS011;7392;52.078;11.650;2023-02-28T15:29:37;2.33;;;1.63;;
14611;SDS011;7392;52.078;11.650;2023-02-28T15:32:20;1.40;;;1.30;;
14611;SDS011;7392;52.078;11.650;2023-02-28T15:34:52;1.80;;;1.60;;
14611;SDS011;7392;52.078;11.650;2023-02-28T15:37:27;2.53;;;2.17;;
14611;SDS011;7392;52.078;11.650;2023-02-28T15:40:03;2.30;;;1.83;;
14611;SDS011;7392;52.078;11.650;2023-02-28T15:42:35;2.30;;;1.90;;
14611;SDS011;7392;52.078;11.650;2023-02-28T15:45:02;2.10;;;1.63;;
14611;SDS011;7392;52.078;11.650;2023-02-28T15:47:31;1.83;;;1.70;;